Time;durP1;ratioP1;P1;durP2;ratioP2;P2;SDS_P1;SDS_P2;PMS_P1;PMS_P2;Temp;Humidity;BMP_temperature;BMP_pressure;BME280_temperature;BME280_humidity;BME280_pressure;Samples;Min_cycle;Max_cycle;Signal;HPM_P1;HPM_P2
2023/12/31 00:00:27;;;;;;;1.90;1.23;;;9.90;94.90;;;;;;5019932;28;20030;-67
2023/12/31 00:02:53;;;;;;;1.58;1.23;;;9.90;94.70;;;;;;5020272;28;20142;-66
2023/12/31 00:05:19;;;;;;;1.00;0.90;;;10.00;94.70;;;;;;5025456;28;20033;-64
2023/12/31 00:07:45;;;;;;;0.90;0.77;;;10.00;94.60;;;;;;5021269;28;20110;-65
2023/12/31 00:10:11;;;;;;;1.27;0.90;;;10.00;94.60;;;;;;5020171;28;20033;-66
2023/12/31 00:12:37;;;;;;;1.10;0.80;;;10.00;94.60;;;;;;5018058;28;20121;-66
2023/12/31 00:15:04;;;;;;;1.00;0.90;;;10.00;94.50;;;;;;5018346;28;20059;-64
2023/12/31 00:17:30;;;;;;;0.90;0.90;;;10.10;94.50;;;;;;5024144;28;20029;-64
2023/12/31 00:19:56;;;;;;;1.23;0.80;;;10.00;94.50;;;;;;5024504;28;20040;-64
2023/12/31 00:22:22;;;;;;;1.13;0.90;;;10.00;94.50;;;;;;5021111;28;20499;-65
2023/12/31 00:24:51;;;;;;;1.45;0.90;;;10.00;94.60;;;;;;5019068;28;20096;-64
2023/12/31 00:27:17;;;;;;;0.95;0.90;;;10.00;94.60;;;;;;5022585;28;20026;-66
2023/12/31 00:29:44;;;;;;;1.13;1.02;;;10.00;94.70;;;;;;5022767;28;20049;-65
2023/12/31 00:32:10;;;;;;;0.80;0.80;;;10.00;94.60;;;;;;5020753;28;20017;-64
2023/12/31 00:34:36;;;;;;;1.77;0.70;;;10.00;94.60;;;;;;5017699;28;20103;-64
2023/12/31 00:37:02;;;;;;;2.47;0.90;;;10.10;94.50;;;;;;5023621;28;20030;-65
2023/12/31 00:39:28;;;;;;;1.90;0.90;;;10.10;94.40;;;;;;5023059;28;20025;-64
2023/12/31 00:41:54;;;;;;;0.82;0.70;;;10.10;94.20;;;;;;5022697;28;20540;-65
2023/12/31 00:44:19;;;;;;;0.98;0.80;;;10.20;94.10;;;;;;5024608;28;20412;-66
2023/12/31 00:46:45;;;;;;;2.58;0.90;;;10.20;94.00;;;;;;5020832;28;20079;-65
2023/12/31 00:49:10;;;;;;;0.70;0.57;;;10.20;93.70;;;;;;5023962;28;20025;-63
2023/12/31 00:51:36;;;;;;;1.17;1.05;;;10.30;93.60;;;;;;5023001;28;20033;-65
2023/12/31 00:54:01;;;;;;;1.63;0.77;;;10.30;93.40;;;;;;5025039;28;20029;-66
2023/12/31 00:56:27;;;;;;;1.83;0.80;;;10.30;93.30;;;;;;5029785;28;20076;-65
2023/12/31 00:58:52;;;;;;;0.60;0.60;;;10.30;93.10;;;;;;5032116;28;20403;-65
2023/12/31 01:01:18;;;;;;;1.20;0.68;;;10.30;93.10;;;;;;5032088;28;20379;-66
2023/12/31 01:03:44;;;;;;;0.70;0.70;;;10.40;93.00;;;;;;5029253;28;20056;-64
2023/12/31 01:06:09;;;;;;;1.83;0.80;;;10.40;93.00;;;;;;5034266;28;20083;-67
2023/12/31 01:08:35;;;;;;;0.90;0.68;;;10.40;92.90;;;;;;5026619;28;20048;-63
2023/12/31 01:11:00;;;;;;;1.17;0.63;;;10.40;92.80;;;;;;5028917;28;20026;-64
2023/12/31 01:13:27;;;;;;;1.85;0.52;;;10.30;92.80;;;;;;5029754;28;20025;-63
2023/12/31 01:15:52;;;;;;;1.83;0.68;;;10.40;92.80;;;;;;5030814;28;20029;-64
2023/12/31 01:18:19;;;;;;;1.13;0.70;;;10.40;92.70;;;;;;5028320;28;20103;-63
2023/12/31 01:20:45;;;;;;;0.73;0.70;;;10.40;92.50;;;;;;5028859;28;20028;-65
2023/12/31 01:23:11;;;;;;;1.48;0.80;;;10.40;92.40;;;;;;5023789;28;20033;-64
2023/12/31 01:25:37;;;;;;;1.42;0.73;;;10.40;92.30;;;;;;5025020;28;20104;-63
2023/12/31 01:28:02;;;;;;;0.68;0.68;;;10.40;92.30;;;;;;5031321;28;20601;-64
2023/12/31 01:30:28;;;;;;;1.60;0.80;;;10.40;92.30;;;;;;5027237;28;20025;-63
2023/12/31 01:32:54;;;;;;;2.45;1.15;;;10.40;92.30;;;;;;5026828;28;20618;-65
2023/12/31 01:35:20;;;;;;;9.43;4.00;;;10.40;92.30;;;;;;5025979;28;20055;-66
2023/12/31 01:37:48;;;;;;;12.48;4.97;;;10.40;92.20;;;;;;5027794;28;20028;-63
2023/12/31 01:40:14;;;;;;;12.32;5.13;;;10.40;92.30;;;;;;5025142;28;20402;-64
2023/12/31 01:42:39;;;;;;;9.07;3.55;;;10.40;92.30;;;;;;5024099;28;20046;-63
2023/12/31 01:45:05;;;;;;;7.57;3.75;;;10.30;92.30;;;;;;5025695;28;20079;-64
2023/12/31 01:47:32;;;;;;;7.47;3.13;;;10.30;92.30;;;;;;5026273;28;20021;-64
2023/12/31 01:50:00;;;;;;;7.53;3.13;;;10.30;92.30;;;;;;5025996;28;20044;-65
2023/12/31 01:52:26;;;;;;;11.20;4.05;;;10.30;92.30;;;;;;5031211;28;20021;-64
2023/12/31 01:54:53;;;;;;;9.15;3.92;;;10.20;92.30;;;;;;5026134;28;20393;-64
2023/12/31 01:57:25;;;;;;;4.55;2.25;;;10.20;92.60;;;;;;5018283;28;20026;-65
2023/12/31 01:59:53;;;;;;;1.90;1.40;;;10.20;92.30;;;;;;5026558;28;20040;-64
2023/12/31 02:02:21;;;;;;;1.77;1.25;;;10.10;92.40;;;;;;5022306;28;20037;-66
2023/12/31 02:04:47;;;;;;;1.83;1.10;;;10.20;92.50;;;;;;5022826;28;20034;-65
2023/12/31 02:07:12;;;;;;;1.20;1.00;;;10.20;92.50;;;;;;5025074;28;20076;-65
2023/12/31 02:09:38;;;;;;;1.10;0.90;;;10.10;92.50;;;;;;5026749;28;20034;-65
2023/12/31 02:12:04;;;;;;;0.85;0.80;;;10.10;92.50;;;;;;5024403;28;20033;-67
2023/12/31 02:14:30;;;;;;;1.17;0.75;;;10.10;92.60;;;;;;5022509;28;20030;-65
2023/12/31 02:16:56;;;;;;;1.10;0.70;;;10.10;92.60;;;;;;5019527;28;20041;-65
2023/12/31 02:19:21;;;;;;;1.10;0.95;;;10.10;92.60;;;;;;5023248;28;20033;-66
2023/12/31 02:21:47;;;;;;;1.77;0.90;;;10.00;92.60;;;;;;5022118;28;20159;-65
2023/12/31 02:24:15;;;;;;;0.90;0.90;;;10.00;92.60;;;;;;5021320;28;20036;-65
2023/12/31 02:26:41;;;;;;;0.73;0.73;;;10.00;92.50;;;;;;5024733;28;20061;-66
2023/12/31 02:29:07;;;;;;;2.28;0.80;;;10.00;92.60;;;;;;5020905;28;20049;-67
2023/12/31 02:31:34;;;;;;;1.90;1.02;;;10.00;92.60;;;;;;5025362;28;20076;-64
2023/12/31 02:33:59;;;;;;;1.00;0.90;;;10.00;92.60;;;;;;5027686;28;20022;-65
2023/12/31 02:36:25;;;;;;;0.95;0.80;;;9.90;92.60;;;;;;5025360;28;20171;-65
2023/12/31 02:38:51;;;;;;;0.80;0.80;;;10.00;92.70;;;;;;5028574;28;20037;-64
2023/12/31 02:41:16;;;;;;;1.05;0.80;;;9.90;92.60;;;;;;5025609;28;20676;-64
2023/12/31 02:43:42;;;;;;;2.28;0.90;;;9.90;92.60;;;;;;5025273;28;20021;-65
2023/12/31 02:46:08;;;;;;;1.10;1.00;;;9.90;92.70;;;;;;5019982;28;20484;-66
2023/12/31 02:48:33;;;;;;;0.98;0.90;;;9.90;92.70;;;;;;5031498;28;20058;-65
2023/12/31 02:50:59;;;;;;;1.15;0.98;;;9.80;92.60;;;;;;5019533;28;20038;-65
2023/12/31 02:53:25;;;;;;;1.48;0.95;;;9.80;92.70;;;;;;5022033;28;20528;-64
2023/12/31 02:55:50;;;;;;;2.75;1.00;;;9.90;92.80;;;;;;5021320;28;20036;-64
2023/12/31 02:58:16;;;;;;;1.95;0.90;;;9.90;92.70;;;;;;5025044;28;20472;-65
2023/12/31 03:00:41;;;;;;;1.50;1.17;;;9.90;92.60;;;;;;5027396;28;20032;-65
2023/12/31 03:03:07;;;;;;;1.20;1.10;;;9.80;92.60;;;;;;5019029;28;20033;-67
2023/12/31 03:05:33;;;;;;;1.35;1.02;;;9.80;92.60;;;;;;5021642;28;20037;-65
2023/12/31 03:07:59;;;;;;;1.05;0.82;;;9.80;92.60;;;;;;5026927;28;20026;-65
2023/12/31 03:10:25;;;;;;;1.15;0.90;;;9.80;92.70;;;;;;5021713;28;20054;-65
2023/12/31 03:12:51;;;;;;;1.92;1.38;;;9.80;92.60;;;;;;5035461;28;20056;-64
2023/12/31 03:15:18;;;;;;;1.27;1.17;;;9.80;92.60;;;;;;5024948;28;20096;-66
2023/12/31 03:17:44;;;;;;;1.33;1.05;;;9.80;92.50;;;;;;5023149;28;20087;-63
2023/12/31 03:20:10;;;;;;;0.95;0.85;;;9.80;92.40;;;;;;5018973;28;20033;-66
2023/12/31 03:22:36;;;;;;;1.00;0.90;;;9.80;92.50;;;;;;5021432;28;20026;-64
2023/12/31 03:25:02;;;;;;;0.75;0.75;;;9.80;92.70;;;;;;5022039;28;20032;-66
2023/12/31 03:27:28;;;;;;;1.10;0.90;;;9.80;92.50;;;;;;5020390;28;20027;-66
2023/12/31 03:29:54;;;;;;;1.10;1.00;;;9.80;92.30;;;;;;5017383;28;20021;-64
2023/12/31 03:32:19;;;;;;;1.35;1.10;;;9.80;92.30;;;;;;5017342;28;20025;-66
2023/12/31 03:34:45;;;;;;;1.02;0.93;;;9.80;92.10;;;;;;5022252;28;20026;-64
2023/12/31 03:37:11;;;;;;;1.60;1.02;;;9.80;92.10;;;;;;5026263;28;20061;-64
2023/12/31 03:39:36;;;;;;;2.08;1.00;;;9.80;92.00;;;;;;5019079;28;20034;-65
2023/12/31 03:42:02;;;;;;;1.10;0.90;;;9.80;92.00;;;;;;5028652;28;20098;-64
2023/12/31 03:44:28;;;;;;;1.25;1.00;;;9.80;91.90;;;;;;5021517;28;20026;-64
2023/12/31 03:46:53;;;;;;;0.80;0.80;;;9.80;91.90;;;;;;5024519;28;20052;-64
2023/12/31 03:49:19;;;;;;;1.33;0.85;;;9.80;91.90;;;;;;5019502;28;20030;-66
2023/12/31 03:51:44;;;;;;;0.90;0.90;;;9.80;91.80;;;;;;5017474;28;20511;-67
2023/12/31 03:54:10;;;;;;;1.23;0.95;;;9.80;91.70;;;;;;5015987;28;20036;-64
2023/12/31 03:56:36;;;;;;;1.30;0.88;;;9.80;91.70;;;;;;5022045;28;20025;-63
2023/12/31 03:59:02;;;;;;;1.60;0.95;;;9.80;91.60;;;;;;5020186;28;20025;-64
2023/12/31 04:01:28;;;;;;;0.80;0.80;;;9.80;91.40;;;;;;5018924;28;20392;-65
2023/12/31 04:03:53;;;;;;;1.27;1.00;;;9.80;91.40;;;;;;5018506;28;20502;-64
2023/12/31 04:06:19;;;;;;;1.00;0.90;;;9.80;91.40;;;;;;5022109;28;20021;-65
2023/12/31 04:08:45;;;;;;;0.85;0.82;;;9.80;91.20;;;;;;5025532;28;20029;-64
2023/12/31 04:11:11;;;;;;;1.65;0.95;;;9.80;91.20;;;;;;5018126;28;20629;-64
2023/12/31 04:13:40;;;;;;;1.42;1.17;;;9.70;91.10;;;;;;5022404;28;20034;-65
2023/12/31 04:16:08;;;;;;;1.77;1.20;;;9.70;91.00;;;;;;5019950;28;20604;-64
2023/12/31 04:18:34;;;;;;;1.65;0.93;;;9.70;90.90;;;;;;5021447;28;20033;-68
2023/12/31 04:21:02;;;;;;;1.23;0.90;;;9.80;91.00;;;;;;5022343;28;20112;-65
2023/12/31 04:23:28;;;;;;;1.10;0.90;;;9.80;90.90;;;;;;5018587;28;20108;-65
2023/12/31 04:25:54;;;;;;;0.80;0.80;;;9.80;90.90;;;;;;5023531;28;20125;-65
2023/12/31 04:28:20;;;;;;;1.30;0.77;;;9.80;90.90;;;;;;5021467;28;20472;-67
2023/12/31 04:30:46;;;;;;;1.60;1.00;;;9.70;90.80;;;;;;5016994;28;20079;-66
2023/12/31 04:33:12;;;;;;;1.10;1.00;;;9.80;90.80;;;;;;5026897;28;20018;-67
2023/12/31 04:35:37;;;;;;;2.72;1.00;;;9.80;91.10;;;;;;5025019;28;20673;-67
2023/12/31 04:38:03;;;;;;;1.30;1.20;;;9.70;90.80;;;;;;5022414;28;20030;-67
2023/12/31 04:40:29;;;;;;;1.23;1.13;;;9.70;90.60;;;;;;5017243;28;20026;-65
2023/12/31 04:42:54;;;;;;;1.00;0.90;;;9.70;90.60;;;;;;5027033;28;20030;-63
2023/12/31 04:45:20;;;;;;;1.27;1.17;;;9.80;90.70;;;;;;5028195;28;20029;-65
2023/12/31 04:47:45;;;;;;;2.00;1.20;;;9.80;90.50;;;;;;5015569;28;20485;-66
2023/12/31 04:50:11;;;;;;;1.85;0.93;;;9.80;90.60;;;;;;5023577;28;20020;-63
2023/12/31 04:52:37;;;;;;;1.20;1.10;;;9.80;90.60;;;;;;5018421;28;20561;-67
2023/12/31 04:55:02;;;;;;;1.27;0.98;;;9.80;90.50;;;;;;5018813;28;20026;-64
2023/12/31 04:57:28;;;;;;;1.13;1.02;;;9.80;90.60;;;;;;5019128;28;20549;-64
2023/12/31 04:59:54;;;;;;;1.63;1.10;;;9.80;90.50;;;;;;5019203;28;20377;-66
2023/12/31 05:02:22;;;;;;;1.30;1.00;;;9.80;90.40;;;;;;5020592;28;20471;-64
2023/12/31 05:04:48;;;;;;;1.40;1.30;;;9.80;90.40;;;;;;5028306;28;20056;-65
2023/12/31 05:07:14;;;;;;;2.95;1.00;;;9.80;90.40;;;;;;5027756;28;20458;-63
2023/12/31 05:09:40;;;;;;;2.55;1.10;;;9.80;90.40;;;;;;5020893;28;20120;-67
2023/12/31 05:12:06;;;;;;;1.67;0.98;;;9.80;90.30;;;;;;5023278;28;20097;-64
2023/12/31 05:14:32;;;;;;;1.10;1.00;;;9.80;90.40;;;;;;5020797;28;20635;-63
2023/12/31 05:16:57;;;;;;;1.48;1.20;;;9.80;90.30;;;;;;5017428;28;20025;-64
2023/12/31 05:19:23;;;;;;;1.33;1.00;;;9.80;90.30;;;;;;5018805;28;20113;-63
2023/12/31 05:21:48;;;;;;;1.33;1.15;;;9.80;90.40;;;;;;5020367;28;20511;-63
2023/12/31 05:24:14;;;;;;;1.30;1.13;;;9.80;90.40;;;;;;5014761;28;20460;-65
2023/12/31 05:26:40;;;;;;;1.77;1.30;;;9.80;90.30;;;;;;5012519;28;20030;-69
2023/12/31 05:29:05;;;;;;;1.42;1.20;;;9.80;90.40;;;;;;5016458;28;20076;-67
2023/12/31 05:31:31;;;;;;;2.40;1.27;;;9.80;90.40;;;;;;5016485;28;20029;-64
2023/12/31 05:33:56;;;;;;;3.10;1.50;;;9.80;90.40;;;;;;5018219;28;20084;-65
2023/12/31 05:36:22;;;;;;;2.13;1.40;;;9.80;90.40;;;;;;5014901;28;20032;-64
2023/12/31 05:38:48;;;;;;;1.40;1.30;;;9.80;90.50;;;;;;5017350;28;20041;-65
2023/12/31 05:41:14;;;;;;;3.30;1.65;;;9.80;90.50;;;;;;5016741;28;20038;-65
2023/12/31 05:43:40;;;;;;;2.42;1.63;;;9.80;90.50;;;;;;5020532;28;20443;-65
2023/12/31 05:46:06;;;;;;;3.47;1.65;;;9.80;90.50;;;;;;5023064;28;20085;-64
2023/12/31 05:48:32;;;;;;;2.60;1.48;;;9.80;90.60;;;;;;5021655;28;20030;-64
2023/12/31 05:50:58;;;;;;;1.63;1.42;;;9.80;90.60;;;;;;5024092;28;20495;-64
2023/12/31 05:53:24;;;;;;;1.98;1.38;;;9.80;90.60;;;;;;5021518;28;20393;-64
2023/12/31 05:55:50;;;;;;;2.60;1.80;;;9.90;90.60;;;;;;5027028;28;20569;-64
2023/12/31 05:58:16;;;;;;;2.65;1.60;;;9.90;90.70;;;;;;5024232;28;20416;-64
2023/12/31 06:00:41;;;;;;;2.72;1.73;;;9.90;90.70;;;;;;5021780;28;20057;-65
2023/12/31 06:03:07;;;;;;;2.13;1.70;;;9.90;90.70;;;;;;5025682;28;20022;-66
2023/12/31 06:05:32;;;;;;;2.35;1.60;;;9.90;90.70;;;;;;5024615;28;20033;-65
2023/12/31 06:07:58;;;;;;;1.70;1.50;;;9.90;90.70;;;;;;5025025;28;20021;-64
2023/12/31 06:10:24;;;;;;;2.95;1.80;;;9.90;90.70;;;;;;5021515;28;20548;-65
2023/12/31 06:12:50;;;;;;;2.10;1.50;;;9.90;90.80;;;;;;5021637;28;20029;-65
2023/12/31 06:15:15;;;;;;;2.40;1.35;;;9.90;90.80;;;;;;5019432;28;20030;-65
2023/12/31 06:17:42;;;;;;;2.45;1.60;;;10.00;90.80;;;;;;5017594;28;20037;-65
2023/12/31 06:20:09;;;;;;;3.65;1.90;;;9.90;90.80;;;;;;5018854;28;20642;-65
2023/12/31 06:22:35;;;;;;;3.03;1.70;;;9.90;90.80;;;;;;5022175;28;20037;-65
2023/12/31 06:25:01;;;;;;;2.33;1.63;;;10.00;90.80;;;;;;5022154;28;20028;-63
2023/12/31 06:27:27;;;;;;;2.50;1.67;;;10.00;90.80;;;;;;5026351;28;20059;-63
2023/12/31 06:29:53;;;;;;;2.58;1.58;;;10.00;90.70;;;;;;5022656;28;20112;-64
2023/12/31 06:32:23;;;;;;;3.20;1.80;;;10.00;90.70;;;;;;5021066;28;20030;-64
2023/12/31 06:34:50;;;;;;;2.63;1.80;;;10.00;90.70;;;;;;5027210;28;20175;-66
2023/12/31 06:37:16;;;;;;;2.97;1.83;;;10.10;90.70;;;;;;5025082;28;20130;-65
2023/12/31 06:39:43;;;;;;;2.88;1.70;;;10.00;90.70;;;;;;5023167;28;20074;-63
2023/12/31 06:42:08;;;;;;;1.90;1.58;;;10.00;90.70;;;;;;5023464;28;20466;-65
2023/12/31 06:44:34;;;;;;;2.45;1.75;;;10.00;90.80;;;;;;5025494;28;20025;-64
2023/12/31 06:47:00;;;;;;;1.42;1.33;;;10.00;90.80;;;;;;5020761;28;20040;-66
2023/12/31 06:49:26;;;;;;;2.25;1.58;;;10.00;90.80;;;;;;5026931;28;20068;-66
2023/12/31 06:51:52;;;;;;;2.03;1.40;;;10.00;90.80;;;;;;5022150;28;20038;-66
2023/12/31 06:54:20;;;;;;;1.75;1.55;;;10.00;90.80;;;;;;5015683;28;20026;-65
2023/12/31 06:56:45;;;;;;;1.90;1.50;;;10.00;90.80;;;;;;5017361;28;20041;-65
2023/12/31 06:59:11;;;;;;;3.10;2.13;;;10.00;90.80;;;;;;5016980;28;20029;-66
2023/12/31 07:01:37;;;;;;;3.35;1.95;;;10.00;90.80;;;;;;5023929;28;20564;-65
2023/12/31 07:04:03;;;;;;;2.10;1.80;;;10.00;90.80;;;;;;5020820;28;20508;-65
2023/12/31 07:06:29;;;;;;;2.03;1.70;;;10.00;90.80;;;;;;5018743;28;20026;-64
2023/12/31 07:08:55;;;;;;;1.80;1.52;;;10.00;90.80;;;;;;5022061;28;20025;-65
2023/12/31 07:11:20;;;;;;;2.72;1.77;;;10.00;90.80;;;;;;5018548;28;20101;-68
2023/12/31 07:13:46;;;;;;;2.40;1.70;;;10.00;90.80;;;;;;5020293;28;20030;-65
2023/12/31 07:16:14;;;;;;;2.65;2.03;;;10.00;90.80;;;;;;5019436;28;20109;-66
2023/12/31 07:18:39;;;;;;;2.80;1.70;;;9.90;90.80;;;;;;5025411;28;20541;-64
2023/12/31 07:21:05;;;;;;;2.13;1.60;;;9.90;90.80;;;;;;5027007;28;20022;-65
2023/12/31 07:23:31;;;;;;;2.47;1.77;;;9.90;90.80;;;;;;5023153;28;20493;-67
2023/12/31 07:25:56;;;;;;;2.15;1.67;;;9.90;90.80;;;;;;5026889;28;20487;-64
2023/12/31 07:28:22;;;;;;;3.63;1.80;;;10.00;91.10;;;;;;5020470;28;20030;-65
2023/12/31 07:30:47;;;;;;;1.95;1.75;;;9.90;90.80;;;;;;5022197;28;20060;-67
2023/12/31 07:33:13;;;;;;;1.80;1.50;;;10.00;90.80;;;;;;5021097;28;20057;-64
2023/12/31 07:35:39;;;;;;;2.92;1.60;;;9.90;90.80;;;;;;5024434;28;20033;-65
2023/12/31 07:38:07;;;;;;;2.03;1.70;;;9.90;90.80;;;;;;5023157;28;20036;-67
2023/12/31 07:40:33;;;;;;;3.33;2.05;;;10.00;90.80;;;;;;5015783;28;20094;-65
2023/12/31 07:42:58;;;;;;;2.65;1.85;;;9.90;90.80;;;;;;5021406;28;20583;-65
2023/12/31 07:45:25;;;;;;;2.17;1.80;;;9.90;90.90;;;;;;5020856;28;20040;-66
2023/12/31 07:47:52;;;;;;;3.38;2.05;;;9.90;90.90;;;;;;5014137;28;20079;-65
2023/12/31 07:50:18;;;;;;;3.08;2.05;;;9.90;90.90;;;;;;5016956;28;20021;-64
2023/12/31 07:52:44;;;;;;;2.50;1.70;;;9.90;90.90;;;;;;5020407;28;20022;-65
2023/12/31 07:55:10;;;;;;;2.67;1.90;;;9.90;90.90;;;;;;5020619;28;20061;-67
2023/12/31 07:57:37;;;;;;;2.97;1.90;;;9.90;90.90;;;;;;5015682;28;20026;-64
2023/12/31 08:00:04;;;;;;;2.75;1.80;;;9.90;90.90;;;;;;5017016;28;20035;-65
2023/12/31 08:02:30;;;;;;;2.40;1.90;;;9.90;90.90;;;;;;5016271;28;20101;-65
2023/12/31 08:04:56;;;;;;;2.60;2.10;;;10.00;90.90;;;;;;5012189;28;20105;-64
2023/12/31 08:07:21;;;;;;;2.30;1.95;;;9.90;90.90;;;;;;5018639;28;20093;-65
2023/12/31 08:09:47;;;;;;;3.08;2.08;;;9.90;90.90;;;;;;5021116;28;20021;-65
2023/12/31 08:12:13;;;;;;;2.50;1.70;;;9.90;90.90;;;;;;5020120;28;20049;-65
2023/12/31 08:14:39;;;;;;;4.18;2.20;;;9.90;91.00;;;;;;5019907;28;20502;-65
2023/12/31 08:17:04;;;;;;;2.45;1.90;;;9.90;91.00;;;;;;5017671;28;20014;-65
2023/12/31 08:19:30;;;;;;;3.35;2.05;;;9.90;91.10;;;;;;5024026;28;20025;-66
2023/12/31 08:21:57;;;;;;;3.05;1.95;;;9.90;91.10;;;;;;5018868;28;20116;-69
2023/12/31 08:24:23;;;;;;;2.55;1.98;;;9.90;91.10;;;;;;5019981;28;20048;-66
2023/12/31 08:26:50;;;;;;;2.72;1.83;;;9.90;91.10;;;;;;5015461;28;20105;-65
2023/12/31 08:29:16;;;;;;;2.97;2.00;;;9.90;91.10;;;;;;5024645;28;20071;-67
2023/12/31 08:31:49;;;;;;;3.80;2.25;;;9.90;91.10;;;;;;5018710;28;20076;-67
2023/12/31 08:34:14;;;;;;;5.18;2.03;;;9.90;91.20;;;;;;5022070;28;20022;-65
2023/12/31 08:36:40;;;;;;;3.15;2.13;;;9.90;91.20;;;;;;5021408;28;20056;-67
2023/12/31 08:39:06;;;;;;;4.05;1.98;;;9.90;91.20;;;;;;5016139;28;20108;-66
2023/12/31 08:41:32;;;;;;;2.15;1.75;;;9.90;91.20;;;;;;5021263;28;20036;-65
2023/12/31 08:43:57;;;;;;;3.50;2.20;;;10.00;91.20;;;;;;5018786;28;20422;-65
2023/12/31 08:46:23;;;;;;;2.42;1.80;;;10.00;91.10;;;;;;5015699;28;20737;-67
2023/12/31 08:48:48;;;;;;;1.83;1.50;;;10.10;91.10;;;;;;5018961;28;20076;-66
2023/12/31 08:51:14;;;;;;;2.50;1.83;;;10.10;91.10;;;;;;5019218;28;20033;-66
2023/12/31 08:53:41;;;;;;;3.53;1.83;;;10.20;91.00;;;;;;5024034;28;20124;-67
2023/12/31 08:56:07;;;;;;;3.83;1.90;;;10.20;91.00;;;;;;5016803;28;20033;-67
2023/12/31 08:58:32;;;;;;;3.10;1.92;;;10.20;90.90;;;;;;5020516;28;20026;-67
2023/12/31 09:00:59;;;;;;;3.83;2.38;;;10.30;90.90;;;;;;5019788;28;20021;-67
2023/12/31 09:03:25;;;;;;;4.38;2.15;;;10.30;90.80;;;;;;5017214;28;20026;-67
2023/12/31 09:05:51;;;;;;;7.13;2.15;;;10.30;90.80;;;;;;5018638;28;20037;-67
2023/12/31 09:08:17;;;;;;;3.08;1.98;;;10.30;90.90;;;;;;5015909;28;20026;-67
2023/12/31 09:10:42;;;;;;;3.08;2.10;;;10.40;90.90;;;;;;5026922;28;20021;-65
2023/12/31 09:13:08;;;;;;;2.95;1.98;;;10.40;90.90;;;;;;5017674;28;20053;-66
2023/12/31 09:15:35;;;;;;;1.73;1.60;;;10.50;90.90;;;;;;5026130;28;20554;-66
2023/12/31 09:18:01;;;;;;;2.17;1.65;;;10.50;90.80;;;;;;5019322;28;20025;-67
2023/12/31 09:20:26;;;;;;;2.72;1.95;;;10.50;90.70;;;;;;5018991;28;20056;-65
2023/12/31 09:22:53;;;;;;;2.97;1.90;;;10.60;90.80;;;;;;5021608;28;20108;-65
2023/12/31 09:25:19;;;;;;;2.70;2.00;;;10.60;90.70;;;;;;5020084;28;20030;-65
2023/12/31 09:27:45;;;;;;;2.80;2.00;;;10.60;90.70;;;;;;5028102;28;20018;-64
2023/12/31 09:30:11;;;;;;;2.90;2.10;;;10.60;90.70;;;;;;5022394;28;20030;-67
2023/12/31 09:32:37;;;;;;;3.17;2.20;;;10.70;90.60;;;;;;5019483;28;20533;-64
2023/12/31 09:35:02;;;;;;;2.50;2.05;;;10.70;90.50;;;;;;5019398;28;20025;-65
2023/12/31 09:37:29;;;;;;;3.78;1.95;;;10.70;90.60;;;;;;5018744;28;20025;-64
2023/12/31 09:39:54;;;;;;;3.10;2.30;;;10.70;90.50;;;;;;5022307;28;20112;-64
2023/12/31 09:42:48;;;;;;;4.03;2.30;;;10.80;90.50;;;;;;5025784;28;20478;-64
2023/12/31 09:45:14;;;;;;;3.03;2.00;;;10.80;90.40;;;;;;5026627;28;20026;-67
2023/12/31 09:47:41;;;;;;;3.42;2.15;;;10.80;90.40;;;;;;5021639;28;20026;-64
2023/12/31 09:50:07;;;;;;;3.42;2.17;;;10.80;90.40;;;;;;5024543;28;20033;-65
2023/12/31 09:52:34;;;;;;;2.53;1.88;;;10.80;90.50;;;;;;5024584;28;20009;-64
2023/12/31 09:55:01;;;;;;;2.03;1.65;;;10.80;90.50;;;;;;5022072;28;20029;-65
2023/12/31 09:57:30;;;;;;;2.85;2.10;;;10.80;90.50;;;;;;5019402;28;20507;-65
2023/12/31 09:59:56;;;;;;;2.40;1.67;;;10.90;90.50;;;;;;5023323;28;20104;-65
2023/12/31 10:02:26;;;;;;;2.38;1.75;;;10.80;90.50;;;;;;5020664;28;20109;-63
2023/12/31 10:04:51;;;;;;;2.28;1.70;;;10.90;90.50;;;;;;5017129;28;20073;-64
2023/12/31 10:07:20;;;;;;;3.03;1.70;;;10.90;90.40;;;;;;5024121;28;20021;-65
2023/12/31 10:09:46;;;;;;;2.00;1.45;;;10.90;90.30;;;;;;5025051;28;20021;-66
2023/12/31 10:12:12;;;;;;;2.42;1.70;;;10.90;90.40;;;;;;5021124;28;20404;-65
2023/12/31 10:14:38;;;;;;;1.85;1.30;;;11.00;90.30;;;;;;5022584;28;20025;-64
2023/12/31 10:17:10;;;;;;;2.10;1.55;;;11.00;90.20;;;;;;5018828;28;20029;-65
2023/12/31 10:19:35;;;;;;;1.50;1.30;;;11.00;90.10;;;;;;5017904;28;20021;-64
2023/12/31 10:22:05;;;;;;;1.30;1.20;;;11.10;90.10;;;;;;5018635;28;20033;-64
2023/12/31 10:24:31;;;;;;;3.88;1.30;;;11.10;90.00;;;;;;5013653;28;20028;-66
2023/12/31 10:26:58;;;;;;;1.48;1.05;;;11.00;89.80;;;;;;5019102;28;20029;-65
2023/12/31 10:29:25;;;;;;;1.27;1.08;;;11.00;89.90;;;;;;5016522;28;20113;-64
2023/12/31 10:31:53;;;;;;;1.17;1.08;;;11.00;89.80;;;;;;5020460;28;20018;-66
2023/12/31 10:34:18;;;;;;;2.92;1.50;;;11.00;89.80;;;;;;5020276;28;20018;-65
2023/12/31 10:36:46;;;;;;;1.63;1.35;;;10.90;89.90;;;;;;5014758;28;20392;-65
2023/12/31 10:39:36;;;;;;;1.70;1.23;;;10.90;90.00;;;;;;5018078;28;20030;-65
2023/12/31 10:42:06;;;;;;;1.75;1.40;;;10.90;90.10;;;;;;5020686;28;20444;-66
2023/12/31 10:44:36;;;;;;;1.83;1.40;;;10.90;90.10;;;;;;5016748;28;20045;-64
2023/12/31 10:47:06;;;;;;;1.80;1.13;;;10.90;90.10;;;;;;5012458;28;20028;-65
2023/12/31 10:49:33;;;;;;;1.60;1.27;;;10.90;90.10;;;;;;5022897;28;20037;-65
2023/12/31 10:52:02;;;;;;;2.10;1.20;;;11.00;90.10;;;;;;5022109;28;20029;-65
2023/12/31 10:54:43;;;;;;;1.42;1.27;;;10.90;90.10;;;;;;5022909;28;20080;-63
2023/12/31 10:57:09;;;;;;;1.63;1.10;;;11.00;90.00;;;;;;5022333;28;20030;-65
2023/12/31 10:59:36;;;;;;;1.77;1.20;;;10.90;90.00;;;;;;5024278;28;20025;-66
2023/12/31 11:02:04;;;;;;;1.35;1.10;;;11.00;89.70;;;;;;5025027;28;20030;-64
2023/12/31 11:04:31;;;;;;;1.15;0.90;;;11.00;89.40;;;;;;5021967;28;20408;-64
2023/12/31 11:06:57;;;;;;;1.80;1.20;;;11.00;89.40;;;;;;5018482;28;20026;-67
2023/12/31 11:09:23;;;;;;;1.15;1.00;;;11.00;89.40;;;;;;5023308;28;20075;-65
2023/12/31 11:11:50;;;;;;;1.63;1.10;;;11.00;89.40;;;;;;5022076;28;20034;-65
2023/12/31 11:14:19;;;;;;;0.73;0.70;;;11.00;89.50;;;;;;5017623;28;20028;-66
2023/12/31 11:17:14;;;;;;;1.38;1.20;;;11.00;89.70;;;;;;5019546;28;20017;-66
2023/12/31 11:19:54;;;;;;;1.85;1.40;;;10.90;89.90;;;;;;5021031;28;20033;-65
2023/12/31 11:22:38;;;;;;;2.40;1.00;;;10.90;90.10;;;;;;5024975;28;20361;-65
2023/12/31 11:25:06;;;;;;;1.15;0.90;;;10.80;90.40;;;;;;5022706;28;20040;-65
2023/12/31 11:27:32;;;;;;;1.67;1.27;;;10.70;90.50;;;;;;5025440;28;20018;-65
2023/12/31 11:29:58;;;;;;;3.45;1.17;;;10.70;90.70;;;;;;5022937;28;20021;-64
2023/12/31 11:32:27;;;;;;;1.25;1.10;;;10.60;90.80;;;;;;5024672;28;20040;-64
2023/12/31 11:34:53;;;;;;;1.02;0.80;;;10.60;90.90;;;;;;5024718;28;20483;-65
2023/12/31 11:37:19;;;;;;;1.83;0.80;;;10.60;91.00;;;;;;5025643;28;20079;-66
2023/12/31 11:39:55;;;;;;;1.10;0.80;;;10.60;91.40;;;;;;5027101;28;20423;-65
2023/12/31 11:42:22;;;;;;;0.80;0.80;;;10.70;91.10;;;;;;5028012;28;20489;-65
2023/12/31 11:44:48;;;;;;;1.52;0.90;;;10.70;91.10;;;;;;5023306;28;20018;-63
2023/12/31 11:47:15;;;;;;;0.90;0.80;;;10.70;91.10;;;;;;5019640;28;20109;-64
2023/12/31 11:49:46;;;;;;;1.55;0.90;;;10.60;91.00;;;;;;5017087;28;20021;-65
2023/12/31 11:52:11;;;;;;;1.77;0.90;;;10.60;91.00;;;;;;5018475;28;20647;-65
2023/12/31 11:54:40;;;;;;;2.95;1.10;;;10.60;90.90;;;;;;5021077;28;20079;-66
2023/12/31 11:57:08;;;;;;;0.82;0.77;;;10.50;90.90;;;;;;5023151;28;20025;-67
2023/12/31 11:59:35;;;;;;;0.60;0.60;;;10.50;91.00;;;;;;5020341;28;20155;-64
2023/12/31 12:02:01;;;;;;;0.80;0.80;;;10.50;91.10;;;;;;5019827;28;20029;-65
2023/12/31 12:04:28;;;;;;;1.00;0.77;;;10.50;91.20;;;;;;5016799;28;20492;-66
2023/12/31 12:06:53;;;;;;;0.75;0.70;;;10.50;91.30;;;;;;5017861;28;20034;-65
2023/12/31 12:09:28;;;;;;;1.23;0.50;;;10.60;91.20;;;;;;5018272;28;20083;-66
2023/12/31 12:11:58;;;;;;;0.77;0.70;;;10.60;91.20;;;;;;5021418;28;20577;-66
2023/12/31 12:14:23;;;;;;;0.80;0.57;;;10.60;91.20;;;;;;5020210;28;20317;-66
2023/12/31 12:16:49;;;;;;;2.00;0.80;;;10.50;91.10;;;;;;5021407;28;20037;-65
2023/12/31 12:19:16;;;;;;;2.83;0.90;;;10.50;91.10;;;;;;5021019;28;20108;-67
2023/12/31 12:21:42;;;;;;;0.63;0.52;;;10.50;91.10;;;;;;5018409;28;20053;-65
2023/12/31 12:24:08;;;;;;;0.65;0.57;;;10.50;91.00;;;;;;5021424;28;20064;-65
2023/12/31 12:26:36;;;;;;;1.13;0.60;;;10.50;91.00;;;;;;5022291;28;20021;-65
2023/12/31 12:29:02;;;;;;;0.82;0.70;;;10.50;90.90;;;;;;5017565;28;20026;-64
2023/12/31 12:31:35;;;;;;;0.75;0.70;;;10.60;91.00;;;;;;5021421;28;20029;-65
2023/12/31 12:34:03;;;;;;;1.13;0.82;;;10.70;91.00;;;;;;5018365;28;20025;-65
2023/12/31 12:36:28;;;;;;;1.92;1.00;;;10.80;90.80;;;;;;5019886;28;20034;-66
2023/12/31 12:38:59;;;;;;;1.63;0.80;;;10.90;90.50;;;;;;5021864;28;20547;-65
2023/12/31 12:41:25;;;;;;;2.33;0.90;;;11.00;90.30;;;;;;5019893;28;20045;-64
2023/12/31 12:43:56;;;;;;;2.85;1.00;;;10.90;90.10;;;;;;5021292;28;20543;-66
2023/12/31 12:46:29;;;;;;;0.82;0.68;;;10.90;90.00;;;;;;5022221;28;20017;-62